createdAt,value
2022-08-30T00:00:26.373Z,7.80
2022-08-30T00:02:53.551Z,8.88
2022-08-30T00:05:20.700Z,9.38
2022-08-30T00:07:47.794Z,10.02
2022-08-30T00:10:15.123Z,12.27
2022-08-30T00:12:43.494Z,10.15
2022-08-30T00:15:12.385Z,11.98
2022-08-30T00:17:39.739Z,7.90
2022-08-30T00:20:08.957Z,8.10
2022-08-30T00:22:36.053Z,10.00
2022-08-30T00:25:03.646Z,6.65
2022-08-30T00:27:31.352Z,12.35
2022-08-30T00:29:58.637Z,11.30
2022-08-30T00:32:26.133Z,10.15
2022-08-30T00:34:54.251Z,9.60
2022-08-30T00:37:21.824Z,7.43
2022-08-30T00:39:49.349Z,7.18
2022-08-30T00:42:17.422Z,11.55
2022-08-30T00:44:44.662Z,6.70
2022-08-30T00:47:12.029Z,6.53
2022-08-30T00:49:40.510Z,8.20
2022-08-30T00:52:07.749Z,8.95
2022-08-30T00:54:36.113Z,9.70
2022-08-30T00:57:03.663Z,15.13
2022-08-30T00:59:31.114Z,8.75
2022-08-30T01:01:58.811Z,9.43
2022-08-30T01:04:26.764Z,10.50
2022-08-30T01:06:54.171Z,10.55
2022-08-30T01:09:21.641Z,8.20
2022-08-30T01:11:48.824Z,10.27
2022-08-30T01:14:17.129Z,10.10
2022-08-30T01:16:44.737Z,7.88
2022-08-30T01:19:31.130Z,14.75
2022-08-30T01:22:00.914Z,10.57
2022-08-30T01:24:28.622Z,9.55
2022-08-30T01:26:55.707Z,9.25
2022-08-30T01:29:23.986Z,9.82
2022-08-30T01:31:51.361Z,9.13
2022-08-30T01:34:19.198Z,11.40
2022-08-30T01:36:46.801Z,8.02
2022-08-30T01:39:15.628Z,9.40
2022-08-30T01:41:43.480Z,8.57
2022-08-30T01:44:11.596Z,9.93
2022-08-30T01:46:40.131Z,9.68
2022-08-30T01:49:08.972Z,11.77
2022-08-30T01:51:36.128Z,8.93
2022-08-30T01:54:03.549Z,10.13
2022-08-30T01:56:30.734Z,11.70
2022-08-30T01:59:02.588Z,10.90
2022-08-30T02:01:32.593Z,9.98
2022-08-30T02:04:00.301Z,11.30
2022-08-30T02:06:27.914Z,9.82
2022-08-30T02:08:55.002Z,11.40
2022-08-30T02:11:22.066Z,7.68
2022-08-30T02:13:49.132Z,9.98
2022-08-30T02:16:18.118Z,9.35
2022-08-30T02:18:48.886Z,10.20
2022-08-30T02:21:16.156Z,8.63
2022-08-30T02:23:43.246Z,11.52
2022-08-30T02:26:11.184Z,9.13
2022-08-30T02:28:49.426Z,9.63
2022-08-30T02:31:18.030Z,9.05
2022-08-30T02:33:47.473Z,10.85
2022-08-30T02:36:15.328Z,9.55
2022-08-30T02:38:42.429Z,9.35
2022-08-30T02:41:09.565Z,11.40
2022-08-30T02:43:36.609Z,9.85
2022-08-30T02:46:04.025Z,8.32
2022-08-30T02:48:31.122Z,10.38
2022-08-30T02:51:04.530Z,10.02
2022-08-30T02:53:31.596Z,10.05
2022-08-30T02:55:58.940Z,8.73
2022-08-30T02:58:26.905Z,8.63
2022-08-30T03:00:54.082Z,8.98
2022-08-30T03:03:21.683Z,12.13
2022-08-30T03:05:48.813Z,10.05
2022-08-30T03:08:15.868Z,8.55
2022-08-30T03:10:43.081Z,10.15
2022-08-30T03:13:10.202Z,9.75
2022-08-30T03:15:40.018Z,9.80
2022-08-30T03:18:07.830Z,11.02
2022-08-30T03:20:38.592Z,10.90
2022-08-30T03:23:05.670Z,11.77
2022-08-30T03:25:33.785Z,9.10
2022-08-30T03:28:00.972Z,17.30
2022-08-30T03:30:28.150Z,8.57
2022-08-30T03:32:55.206Z,11.63
2022-08-30T03:35:22.340Z,12.70
2022-08-30T03:37:49.573Z,8.43
2022-08-30T03:40:23.633Z,11.18
2022-08-30T03:42:51.258Z,10.32
2022-08-30T03:45:19.373Z,9.43
2022-08-30T03:47:46.961Z,9.18
2022-08-30T03:50:15.539Z,11.25
2022-08-30T03:52:42.793Z,10.38
2022-08-30T03:55:10.041Z,13.23
2022-08-30T03:57:38.950Z,14.30
2022-08-30T04:00:10.925Z,9.02
2022-08-30T04:02:38.081Z,11.27
2022-08-30T04:05:05.656Z,6.93
2022-08-30T04:07:32.721Z,9.32
2022-08-30T04:10:00.733Z,8.93
2022-08-30T04:12:28.003Z,11.68
2022-08-30T04:14:55.190Z,10.38
2022-08-30T04:17:22.345Z,9.32
2022-08-30T04:19:49.380Z,10.05
2022-08-30T04:22:16.615Z,9.13
2022-08-30T04:24:43.950Z,10.80
2022-08-30T04:27:11.343Z,9.70
2022-08-30T04:29:38.417Z,10.50
2022-08-30T04:32:05.997Z,8.18
2022-08-30T04:34:33.180Z,8.00
2022-08-30T04:37:00.249Z,8.02
2022-08-30T04:39:27.307Z,8.55
2022-08-30T04:41:55.931Z,8.90
2022-08-30T04:44:23.042Z,11.80
2022-08-30T04:46:50.131Z,8.85
2022-08-30T04:49:17.267Z,11.73
2022-08-30T04:51:44.355Z,10.70
2022-08-30T04:54:11.437Z,7.55
2022-08-30T04:56:38.471Z,10.95
2022-08-30T04:59:05.718Z,9.65
2022-08-30T05:01:44.847Z,8.38
2022-08-30T05:04:12.267Z,11.65
2022-08-30T05:06:39.368Z,10.35
2022-08-30T05:09:06.460Z,8.30
2022-08-30T05:11:33.929Z,8.02
2022-08-30T05:14:01.020Z,11.70
2022-08-30T05:16:28.252Z,7.47
2022-08-30T05:18:55.333Z,9.63
2022-08-30T05:21:25.384Z,8.48
2022-08-30T05:23:53.990Z,7.07
2022-08-30T05:26:25.055Z,10.25
2022-08-30T05:28:52.479Z,8.80
2022-08-30T05:31:21.636Z,10.52
2022-08-30T05:33:49.544Z,8.05
2022-08-30T05:36:17.188Z,7.65
2022-08-30T05:38:44.560Z,7.93
2022-08-30T05:41:12.247Z,8.52
2022-08-30T05:43:39.766Z,7.65
2022-08-30T05:46:08.228Z,8.40
2022-08-30T05:48:38.172Z,6.68
2022-08-30T05:51:05.299Z,7.68
2022-08-30T05:53:32.739Z,12.75
2022-08-30T05:56:01.291Z,10.82
2022-08-30T05:58:28.439Z,13.95
2022-08-30T06:00:55.504Z,12.00
2022-08-30T06:03:22.648Z,11.48
2022-08-30T06:05:49.807Z,12.52
2022-08-30T06:08:17.017Z,10.32
2022-08-30T06:10:44.365Z,11.77
2022-08-30T06:13:11.492Z,11.57
2022-08-30T06:15:38.639Z,10.32
2022-08-30T06:18:05.723Z,11.07
2022-08-30T06:20:32.833Z,13.23
2022-08-30T06:22:59.891Z,13.45
2022-08-30T06:25:27.169Z,12.95
2022-08-30T06:28:08.484Z,10.40
2022-08-30T06:30:35.597Z,10.43
2022-08-30T06:33:02.926Z,13.88
2022-08-30T06:35:32.691Z,11.90
2022-08-30T06:38:02.541Z,18.25
2022-08-30T06:40:30.016Z,11.80
2022-08-30T06:42:57.177Z,14.18
2022-08-30T06:45:24.258Z,10.85
2022-08-30T06:47:51.351Z,16.75
2022-08-30T06:50:18.988Z,12.00
2022-08-30T06:52:47.303Z,16.65
2022-08-30T06:55:15.701Z,14.05
2022-08-30T06:57:42.854Z,14.23
2022-08-30T07:00:12.311Z,12.23
2022-08-30T07:02:39.503Z,11.75
2022-08-30T07:05:07.919Z,12.85
2022-08-30T07:07:36.367Z,17.35
2022-08-30T07:10:04.907Z,17.73
2022-08-30T07:12:32.002Z,11.50
2022-08-30T07:14:59.111Z,12.30
2022-08-30T07:17:44.903Z,14.40
2022-08-30T07:20:11.968Z,9.63
2022-08-30T07:22:39.058Z,8.45
2022-08-30T07:25:06.231Z,17.33
2022-08-30T07:27:33.331Z,12.98
2022-08-30T07:30:02.541Z,13.85
2022-08-30T07:32:29.627Z,11.55
2022-08-30T07:34:56.802Z,15.10
2022-08-30T07:37:24.422Z,11.48
2022-08-30T07:39:51.711Z,12.10
2022-08-30T07:42:18.835Z,8.20
2022-08-30T07:44:45.906Z,12.00
2022-08-30T07:47:12.956Z,10.55
2022-08-30T07:49:40.732Z,11.57
2022-08-30T07:52:07.793Z,11.00
2022-08-30T07:54:35.113Z,14.25
2022-08-30T07:57:02.260Z,12.75
2022-08-30T07:59:31.870Z,13.57
2022-08-30T08:02:01.379Z,10.40
2022-08-30T08:04:28.712Z,12.75
2022-08-30T08:06:56.257Z,11.80
2022-08-30T08:09:23.289Z,14.90
2022-08-30T08:11:50.344Z,9.32
2022-08-30T08:14:17.610Z,15.45
2022-08-30T08:16:46.598Z,10.40
2022-08-30T08:19:13.793Z,15.63
2022-08-30T08:21:40.862Z,14.43
2022-08-30T08:24:08.011Z,17.55
2022-08-30T08:26:36.801Z,10.90
2022-08-30T08:29:04.229Z,13.05
2022-08-30T08:31:33.235Z,10.75
2022-08-30T08:36:33.948Z,13.13
2022-08-30T08:39:01.637Z,9.32
2022-08-30T08:41:34.886Z,10.25
2022-08-30T08:44:04.787Z,10.85
2022-08-30T08:46:45.357Z,11.57
2022-08-30T08:49:12.768Z,14.20
2022-08-30T08:51:59.587Z,9.73
2022-08-30T08:54:35.809Z,8.93
2022-08-30T08:57:02.913Z,12.13
2022-08-30T08:59:30.056Z,7.95
2022-08-30T09:02:02.831Z,17.35
2022-08-30T09:04:35.000Z,9.27
2022-08-30T09:07:05.485Z,11.55
2022-08-30T09:09:40.220Z,8.82
2022-08-30T09:12:08.251Z,9.98
2022-08-30T09:14:48.025Z,12.63
2022-08-30T09:17:16.710Z,7.55
2022-08-30T09:19:58.366Z,13.18
2022-08-30T09:22:26.921Z,8.23
2022-08-30T09:25:05.924Z,10.73
2022-08-30T09:27:38.241Z,9.73
2022-08-30T09:30:24.937Z,10.95
2022-08-30T09:32:55.564Z,8.73
2022-08-30T09:35:31.272Z,7.63
2022-08-30T09:38:04.436Z,10.27
2022-08-30T09:40:34.378Z,10.48
2022-08-30T09:43:03.383Z,11.00
2022-08-30T09:45:32.876Z,12.65
2022-08-30T09:48:00.139Z,12.40
2022-08-30T09:50:28.244Z,12.90
2022-08-30T09:52:55.517Z,11.07
2022-08-30T09:55:22.775Z,10.65
2022-08-30T09:57:52.497Z,11.30
2022-08-30T10:00:21.523Z,8.68
2022-08-30T10:02:54.642Z,11.63
2022-08-30T10:05:21.700Z,7.50
2022-08-30T10:08:00.430Z,8.95
2022-08-30T10:10:45.229Z,10.88
2022-08-30T10:13:22.586Z,9.35
2022-08-30T10:15:58.756Z,11.07
2022-08-30T10:18:26.503Z,11.82
2022-08-30T10:20:57.592Z,8.82
2022-08-30T10:23:39.367Z,9.65
2022-08-30T10:26:10.681Z,12.90
2022-08-30T10:28:57.040Z,11.00
2022-08-30T10:31:29.703Z,9.10
2022-08-30T10:33:59.439Z,8.80
2022-08-30T10:36:32.829Z,8.50
2022-08-30T10:39:00.856Z,8.77
2022-08-30T10:41:40.090Z,8.25
2022-08-30T10:44:16.369Z,9.05
2022-08-30T10:46:52.980Z,7.20
2022-08-30T10:49:24.859Z,9.57
2022-08-30T10:51:59.055Z,7.78
2022-08-30T10:54:41.810Z,10.82
2022-08-30T10:57:09.717Z,7.88
2022-08-30T10:59:38.654Z,8.30
2022-08-30T11:02:05.750Z,12.40
2022-08-30T11:04:32.808Z,9.10
2022-08-30T11:07:10.436Z,8.70
2022-08-30T11:09:43.106Z,7.07
2022-08-30T11:12:29.013Z,7.55
2022-08-30T11:14:56.115Z,8.60
2022-08-30T11:17:26.266Z,9.38
2022-08-30T11:19:54.277Z,8.90
2022-08-30T11:22:29.767Z,7.85
2022-08-30T11:25:09.713Z,9.20
2022-08-30T11:27:51.444Z,7.78
2022-08-30T11:30:28.171Z,10.32
2022-08-30T11:33:02.949Z,7.15
2022-08-30T11:35:48.119Z,7.15
2022-08-30T11:38:28.405Z,12.68
2022-08-30T11:40:56.074Z,8.57
2022-08-30T11:43:36.783Z,8.18
2022-08-30T11:46:24.255Z,10.88
2022-08-30T11:49:10.323Z,7.40
2022-08-30T11:52:26.447Z,14.25
2022-08-30T11:55:18.870Z,12.23
2022-08-30T11:57:53.861Z,7.95
2022-08-30T12:00:34.945Z,6.28
2022-08-30T12:03:14.753Z,6.95
2022-08-30T12:05:42.697Z,9.98
2022-08-30T12:08:10.164Z,9.85
2022-08-30T12:10:45.445Z,7.07
2022-08-30T12:13:32.494Z,7.43
2022-08-30T12:16:05.567Z,4.15
2022-08-30T12:18:37.478Z,5.72
2022-08-30T12:21:14.158Z,6.25
2022-08-30T12:23:47.805Z,4.30
2022-08-30T12:26:20.253Z,5.78
2022-08-30T12:28:49.081Z,2.42
2022-08-30T12:31:18.767Z,6.53
2022-08-30T12:33:51.722Z,6.70
2022-08-30T12:36:34.549Z,8.32
2022-08-30T12:39:09.387Z,7.55
2022-08-30T12:41:43.532Z,6.82
2022-08-30T12:44:14.252Z,5.97
2022-08-30T12:46:42.194Z,7.10
2022-08-30T12:49:09.474Z,5.90
2022-08-30T12:51:38.869Z,5.85
2022-08-30T12:54:13.658Z,7.22
2022-08-30T12:56:49.777Z,4.50
2022-08-30T12:59:36.814Z,5.38
2022-08-30T13:02:09.059Z,8.55
2022-08-30T13:04:48.105Z,2.80
2022-08-30T13:07:32.633Z,11.30
2022-08-30T13:10:02.466Z,4.00
2022-08-30T13:12:30.309Z,6.80
2022-08-30T13:15:29.941Z,4.70
2022-08-30T13:18:18.795Z,5.82
2022-08-30T13:21:09.902Z,5.55
2022-08-30T13:23:37.030Z,5.13
2022-08-30T13:26:06.871Z,12.25
2022-08-30T13:28:43.686Z,7.25
2022-08-30T13:31:15.972Z,7.15
2022-08-30T13:33:45.882Z,5.53
2022-08-30T13:36:16.153Z,5.55
2022-08-30T13:38:43.281Z,5.15
2022-08-30T13:41:10.971Z,6.65
2022-08-30T13:44:09.519Z,4.80
2022-08-30T13:46:27.001Z,8.48
2022-08-30T13:48:58.226Z,5.68
2022-08-30T13:51:26.206Z,2.53
2022-08-30T13:53:54.037Z,6.30
2022-08-30T13:56:21.622Z,7.93
2022-08-30T13:58:48.799Z,4.38
2022-08-30T14:01:15.932Z,3.70
2022-08-30T14:06:34.054Z,3.92
2022-08-30T14:09:04.558Z,7.57
2022-08-30T14:11:31.956Z,5.57
2022-08-30T14:14:14.940Z,6.93
2022-08-30T14:16:44.108Z,4.93
2022-08-30T14:19:12.399Z,5.90
2022-08-30T14:21:39.649Z,4.38
2022-08-30T14:24:07.217Z,5.30
2022-08-30T14:26:36.487Z,4.80
2022-08-30T14:29:06.177Z,6.57
2022-08-30T14:31:36.886Z,7.63
2022-08-30T14:34:05.158Z,5.22
2022-08-30T14:36:33.830Z,6.78
2022-08-30T14:39:01.231Z,4.28
2022-08-30T14:41:28.602Z,4.28
2022-08-30T14:43:56.258Z,4.90
2022-08-30T14:46:25.633Z,5.55
2022-08-30T14:48:53.774Z,6.35
2022-08-30T14:51:21.972Z,6.78
2022-08-30T14:53:51.779Z,8.98
2022-08-30T14:56:20.103Z,3.33
2022-08-30T14:58:51.148Z,5.70
2022-08-30T15:01:18.808Z,7.65
2022-08-30T15:03:46.116Z,6.75
2022-08-30T15:06:13.284Z,8.00
2022-08-30T15:08:41.131Z,6.28
2022-08-30T15:11:12.290Z,8.98
2022-08-30T15:13:40.043Z,6.43
2022-08-30T15:16:11.190Z,6.25
2022-08-30T15:18:38.349Z,9.50
2022-08-30T15:21:05.689Z,6.72
2022-08-30T15:23:33.662Z,5.63
2022-08-30T15:26:00.978Z,3.67
2022-08-30T15:28:28.051Z,6.43
2022-08-30T15:30:55.659Z,6.03
2022-08-30T15:33:23.421Z,7.00
2022-08-30T15:35:52.039Z,11.95
2022-08-30T15:38:21.908Z,6.45
2022-08-30T15:40:50.135Z,6.70
2022-08-30T15:43:17.434Z,6.28
2022-08-30T15:45:45.023Z,7.13
2022-08-30T15:48:12.799Z,5.50
2022-08-30T15:50:40.320Z,8.13
2022-08-30T15:53:07.601Z,2.63
2022-08-30T15:55:34.955Z,1.70
2022-08-30T15:58:02.141Z,6.75
2022-08-30T16:00:29.546Z,7.45
2022-08-30T16:02:57.433Z,9.70
2022-08-30T16:05:24.722Z,5.53
2022-08-30T16:07:52.564Z,7.25
2022-08-30T16:10:19.821Z,3.15
2022-08-30T16:12:46.969Z,6.25
2022-08-30T16:15:14.151Z,6.80
2022-08-30T16:17:41.307Z,5.82
2022-08-30T16:20:08.955Z,6.25
2022-08-30T16:22:36.208Z,4.13
2022-08-30T16:25:04.576Z,8.38
2022-08-30T16:27:34.058Z,3.13
2022-08-30T16:30:01.739Z,5.00
2022-08-30T16:32:28.829Z,7.65
2022-08-30T16:34:55.951Z,5.97
2022-08-30T16:37:23.030Z,5.22
2022-08-30T16:39:50.767Z,8.25
2022-08-30T16:42:20.803Z,5.28
2022-08-30T16:44:48.300Z,4.70
2022-08-30T16:47:16.866Z,5.25
2022-08-30T16:49:44.596Z,5.60
2022-08-30T16:52:11.956Z,7.75
2022-08-30T16:54:39.146Z,5.82
2022-08-30T16:57:06.624Z,6.50
2022-08-30T16:59:33.771Z,6.82
2022-08-30T17:02:01.287Z,6.60
2022-08-30T17:04:28.410Z,7.68
2022-08-30T17:06:55.558Z,6.38
2022-08-30T17:09:25.882Z,5.97
2022-08-30T17:11:53.030Z,6.50
2022-08-30T17:14:27.927Z,8.48
2022-08-30T17:16:57.171Z,8.07
2022-08-30T17:19:26.764Z,5.13
2022-08-30T17:21:56.194Z,8.32
2022-08-30T17:24:23.390Z,4.53
2022-08-30T17:26:51.820Z,8.38
2022-08-30T17:29:19.002Z,6.10
2022-08-30T17:31:50.801Z,5.88
2022-08-30T17:34:21.012Z,4.95
2022-08-30T17:36:49.049Z,5.30
2022-08-30T17:39:16.729Z,8.00
2022-08-30T17:41:50.269Z,4.95
2022-08-30T17:44:18.511Z,4.95
2022-08-30T17:46:45.722Z,4.97
2022-08-30T17:49:13.225Z,11.00
2022-08-30T17:51:42.429Z,6.47
2022-08-30T17:54:10.332Z,5.45
2022-08-30T17:56:37.393Z,10.75
2022-08-30T17:59:07.838Z,5.32
2022-08-30T18:01:36.285Z,5.80
2022-08-30T18:04:06.292Z,6.47
2022-08-30T18:06:34.022Z,6.22
2022-08-30T18:09:01.467Z,7.35
2022-08-30T18:11:28.638Z,6.78
2022-08-30T18:13:55.721Z,7.35
2022-08-30T18:16:26.496Z,3.42
2022-08-30T18:18:57.453Z,6.50
2022-08-30T18:21:25.353Z,6.10
2022-08-30T18:23:52.607Z,6.75
2022-08-30T18:26:19.778Z,5.47
2022-08-30T18:28:51.653Z,4.88
2022-08-30T18:31:18.763Z,4.68
2022-08-30T18:33:47.177Z,4.30
2022-08-30T18:36:14.466Z,7.35
2022-08-30T18:38:42.971Z,6.05
2022-08-30T18:41:11.247Z,5.63
2022-08-30T18:43:38.333Z,11.18
2022-08-30T18:46:09.365Z,6.18
2022-08-30T18:48:36.809Z,8.85
2022-08-30T18:51:04.604Z,5.05
2022-08-30T18:53:32.587Z,5.97
2022-08-30T18:55:59.988Z,6.75
2022-08-30T18:58:27.069Z,4.82
2022-08-30T19:00:56.791Z,6.47
2022-08-30T19:03:24.193Z,3.65
2022-08-30T19:05:51.279Z,4.65
2022-08-30T19:08:18.541Z,6.93
2022-08-30T19:10:45.753Z,5.05
2022-08-30T19:13:13.361Z,6.93
2022-08-30T19:15:40.428Z,6.13
2022-08-30T19:18:16.591Z,5.13
2022-08-30T19:20:44.245Z,6.30
2022-08-30T19:23:11.327Z,5.25
2022-08-30T19:25:40.187Z,5.43
2022-08-30T19:28:07.475Z,6.53
2022-08-30T19:30:34.677Z,5.97
2022-08-30T19:33:01.788Z,4.25
2022-08-30T19:35:29.882Z,3.95
2022-08-30T19:37:57.376Z,3.92
2022-08-30T19:40:24.495Z,3.50
2022-08-30T19:42:52.752Z,5.78
2022-08-30T19:45:21.662Z,5.55
2022-08-30T19:47:49.179Z,4.90
2022-08-30T19:50:17.041Z,3.95
2022-08-30T19:52:48.402Z,3.88
2022-08-30T19:55:23.892Z,5.55
2022-08-30T19:57:55.519Z,5.35
2022-08-30T20:00:23.431Z,4.30
2022-08-30T20:02:51.319Z,5.10
2022-08-30T20:05:19.120Z,5.32
2022-08-30T20:07:51.138Z,5.68
2022-08-30T20:10:20.415Z,5.38
2022-08-30T20:12:49.872Z,4.68
2022-08-30T20:15:18.064Z,6.78
2022-08-30T20:18:03.352Z,5.55
2022-08-30T20:20:33.558Z,7.15
2022-08-30T20:23:03.520Z,7.45
2022-08-30T20:25:31.293Z,6.07
2022-08-30T20:27:59.349Z,5.53
2022-08-30T20:30:27.292Z,4.72
2022-08-30T20:32:54.544Z,7.15
2022-08-30T20:35:21.747Z,6.47
2022-08-30T20:37:50.689Z,7.65
2022-08-30T20:40:17.918Z,6.55
2022-08-30T20:42:46.228Z,5.25
2022-08-30T20:45:14.453Z,4.15
2022-08-30T20:47:42.800Z,8.27
2022-08-30T20:50:13.915Z,4.30
2022-08-30T20:52:41.441Z,4.68
2022-08-30T20:55:09.284Z,6.32
2022-08-30T20:57:36.378Z,7.35
2022-08-30T21:00:04.456Z,7.15
2022-08-30T21:02:32.889Z,8.45
2022-08-30T21:04:59.971Z,8.85
2022-08-30T21:07:27.051Z,7.10
2022-08-30T21:09:54.311Z,12.02
2022-08-30T21:12:21.357Z,3.67
2022-08-30T21:14:48.444Z,6.50
2022-08-30T21:17:15.518Z,4.05
2022-08-30T21:19:44.083Z,4.45
2022-08-30T21:22:11.714Z,3.47
2022-08-30T21:24:38.822Z,6.38
2022-08-30T21:27:06.324Z,5.85
2022-08-30T21:29:33.645Z,3.55
2022-08-30T21:32:00.712Z,6.55
2022-08-30T21:34:27.737Z,4.22
2022-08-30T21:36:54.828Z,3.97
2022-08-30T21:39:26.817Z,4.53
2022-08-30T21:41:56.891Z,5.90
2022-08-30T21:44:25.305Z,5.07
2022-08-30T21:46:53.267Z,4.75
2022-08-30T21:49:22.696Z,4.05
2022-08-30T21:51:50.617Z,4.85
2022-08-30T21:54:18.359Z,4.32
2022-08-30T21:56:49.069Z,7.75
2022-08-30T21:59:16.684Z,4.32
2022-08-30T22:01:43.842Z,5.15
2022-08-30T22:04:11.413Z,7.68
2022-08-30T22:06:39.924Z,4.82
2022-08-30T22:09:09.134Z,6.63
2022-08-30T22:11:36.957Z,5.95
2022-08-30T22:14:04.593Z,6.13
2022-08-30T22:16:31.813Z,6.10
2022-08-30T22:18:59.248Z,5.03
2022-08-30T22:21:28.419Z,4.35
2022-08-30T22:23:55.771Z,6.82
2022-08-30T22:26:23.826Z,8.15
2022-08-30T22:28:51.690Z,4.18
2022-08-30T22:31:19.436Z,4.65
2022-08-30T22:33:47.777Z,6.03
2022-08-30T22:36:16.650Z,5.63
2022-08-30T22:38:43.915Z,8.23
2022-08-30T22:41:15.553Z,4.63
2022-08-30T22:43:42.655Z,6.20
2022-08-30T22:46:11.308Z,4.95
2022-08-30T22:48:39.662Z,5.80
2022-08-30T22:51:07.017Z,6.80
2022-08-30T22:53:34.091Z,6.63
2022-08-30T22:56:01.206Z,9.82
2022-08-30T22:58:28.433Z,6.60
2022-08-30T23:00:56.305Z,5.03
2022-08-30T23:03:23.559Z,8.18
2022-08-30T23:05:50.625Z,5.45
2022-08-30T23:08:17.681Z,5.43
2022-08-30T23:10:44.726Z,8.05
2022-08-30T23:13:11.869Z,7.78
2022-08-30T23:15:38.931Z,5.72
2022-08-30T23:18:06.336Z,4.90
2022-08-30T23:20:33.465Z,5.93
2022-08-30T23:23:00.486Z,5.22
2022-08-30T23:25:51.920Z,3.72
2022-08-30T23:28:38.436Z,5.00
2022-08-30T23:31:31.530Z,5.18
2022-08-30T23:34:17.198Z,5.10
2022-08-30T23:37:03.281Z,6.38
2022-08-30T23:39:49.250Z,3.90
2022-08-30T23:42:35.227Z,3.28
2022-08-30T23:45:21.196Z,5.43
2022-08-30T23:48:07.169Z,7.47
2022-08-30T23:50:53.116Z,4.68
2022-08-30T23:53:39.179Z,3.95
2022-08-30T23:56:30.557Z,3.30
2022-08-30T23:59:16.494Z,5.40
